Lake Panamoka, New York
Current Conditions -  °F | °C
As of 12:56 AM on Friday 28 Nov 2014 (Local Time) from KHWV Reporting Station
Overcast Overcast  
Wind Chill: -3°   Ceiling: 4400
Heat Index:   Visibility: 10mi
Dew Point: -3°   Wind: 12mph
Humidity: 70%   Direction: 340°NNW
Pressure: 30.04"   Gusts: NA
Location:  40.8942°N, 72.8763°W
Report Text: KHWV 280556Z AUTO 34010KT 10SM OVC044 02/M03 A3004 RMK AO2 SLP171 T00171033 10028 20017 50002 TSNO $
Loading
Personal Weather Stations






























Interactive Weather Map New forecast layout! Learn more

10-Day Weather Forecast

Advertisements
Track Severe Weather on mobile